Dolphy 8 — MENT2 — position and weather

sailwx.info

Track history (hours):
 
Tides and Currents Weather Stations Pressure Air Temp Water Temp Dewpoint Dewpoint Depression Visibility Wind Speed Wind Dir Waves Ship Positions

Dolphy 8

Last reported at 2017-Sep-26 23:09 UTC. Time now 2017-Nov-18 15:36 UTC.
Position N 51°29' W 002°46'.
Warning: this ship's position is 52 days out of date.

Length 11 m.

Type: Sailing vessel. MMSI: 235019094.

Date/timePositionNaut miles runAvg speedWind from/ knotsBaromVisibWave heightAir tempDewpointWater temp
2017-Sep-26 23:09N 51°29' W 002°46'0 0.0
2017-Sep-26 23:00N 51°29' W 002°46'0 0.4
2017-Sep-26 22:25N 51°30' W 002°45'81 6.9
2017-Sep-26 10:36N 50°55' W 004°43'7 7.2
2017-Sep-26 09:35N 50°48' W 004°47'1 7.3
2017-Sep-26 09:30N 50°48' W 004°48'4 7.3
2017-Sep-26 08:55N 50°44' W 004°50'4 7.2
2017-Sep-26 08:19N 50°40' W 004°53'4 7.2
2017-Sep-26 07:45N 50°36' W 004°56'9 0.2
2017-Sep-24 18:01N 50°31' W 005°08'1 7.6
2017-Sep-24 17:57N 50°31' W 005°08'  
2017-Sep-19 07:35N 50°20' W 004°10'1 7.0
2017-Sep-19 07:30N 50°21' W 004°10'1 1.6
2017-Sep-19 06:59N 50°22' W 004°10'0 0.0
2017-Sep-19 06:29N 50°22' W 004°10'0 0.0
2017-Sep-19 05:59N 50°22' W 004°10'0 0.0
2017-Sep-17 18:46N 50°22' W 004°10'0 0.0
2017-Sep-17 18:28N 50°22' W 004°10'0 0.0
2017-Sep-17 17:58N 50°22' W 004°10'0 0.0
2017-Sep-17 17:31N 50°22' W 004°10'  
Track history (hours):
 
Tides and Currents Weather Stations Pressure Air Temp Water Temp Dewpoint Dewpoint Depression Visibility Wind Speed Wind Dir Waves Ship Positions

Dolphy 8

Last reported at 2017-Sep-26 23:09 UTC. Time now 2017-Nov-18 15:36 UTC.
Position N 51°29' W 002°46'.
Warning: this ship's position is 52 days out of date.

Length 11 m.

Type: Sailing vessel. MMSI: 235019094.

Date/timePositionNaut miles runAvg speedWind from/ knotsBaromVisibWave heightAir tempDewpointWater temp
2017-Sep-26 23:09N 51°29' W 002°46'0 0.0
2017-Sep-26 23:00N 51°29' W 002°46'0 0.4
2017-Sep-26 22:25N 51°30' W 002°45'81 6.9
2017-Sep-26 10:36N 50°55' W 004°43'7 7.2
2017-Sep-26 09:35N 50°48' W 004°47'1 7.3
2017-Sep-26 09:30N 50°48' W 004°48'4 7.3
2017-Sep-26 08:55N 50°44' W 004°50'4 7.2
2017-Sep-26 08:19N 50°40' W 004°53'4 7.2
2017-Sep-26 07:45N 50°36' W 004°56'9 0.2
2017-Sep-24 18:01N 50°31' W 005°08'1 7.6
2017-Sep-24 17:57N 50°31' W 005°08'  
2017-Sep-19 07:35N 50°20' W 004°10'1 7.0
2017-Sep-19 07:30N 50°21' W 004°10'1 1.6
2017-Sep-19 06:59N 50°22' W 004°10'0 0.0
2017-Sep-19 06:29N 50°22' W 004°10'0 0.0
2017-Sep-19 05:59N 50°22' W 004°10'0 0.0
2017-Sep-17 18:46N 50°22' W 004°10'0 0.0
2017-Sep-17 18:28N 50°22' W 004°10'0 0.0
2017-Sep-17 17:58N 50°22' W 004°10'0 0.0
2017-Sep-17 17:31N 50°22' W 004°10'  

Dump ship's entire track history